createdAt,value
2023-01-27T00:00:54.383Z,30.50
2023-01-27T00:03:56.971Z,33.70
2023-01-27T00:07:00.544Z,30.60
2023-01-27T00:10:14.331Z,30.30
2023-01-27T00:13:31.582Z,33.90
2023-01-27T00:16:34.616Z,34.80
2023-01-27T00:19:37.026Z,29.00
2023-01-27T00:22:59.746Z,30.40
2023-01-27T00:26:08.641Z,27.00
2023-01-27T00:29:10.861Z,29.10
2023-01-27T00:32:33.504Z,27.70
2023-01-27T00:35:37.975Z,28.60
2023-01-27T00:38:43.210Z,28.60
2023-01-27T00:41:46.376Z,30.20
2023-01-27T00:45:12.801Z,32.80
2023-01-27T00:48:16.064Z,28.50
2023-01-27T00:51:22.711Z,28.90
2023-01-27T00:54:27.508Z,27.90
2023-01-27T00:57:31.663Z,28.00
2023-01-27T01:00:34.850Z,29.20
2023-01-27T01:03:38.396Z,28.20
2023-01-27T01:06:44.948Z,28.70
2023-01-27T01:09:55.196Z,26.50
2023-01-27T01:12:58.815Z,29.30
2023-01-27T01:16:14.063Z,26.10
2023-01-27T01:19:20.632Z,28.30
2023-01-27T01:22:25.794Z,26.80
2023-01-27T01:25:29.795Z,25.40
2023-01-27T01:28:36.038Z,28.20
2023-01-27T01:31:44.243Z,26.90
2023-01-27T01:34:47.852Z,28.80
2023-01-27T01:37:54.079Z,27.50
2023-01-27T01:40:58.228Z,24.80
2023-01-27T01:44:33.082Z,25.60
2023-01-27T01:47:36.609Z,27.40
2023-01-27T01:50:47.998Z,26.60
2023-01-27T01:53:58.483Z,26.70
2023-01-27T01:57:10.760Z,30.10
2023-01-27T06:18:54.470Z,36.50
2023-01-27T06:22:01.399Z,29.50
2023-01-27T06:25:10.957Z,28.50
2023-01-27T06:28:29.986Z,28.60
2023-01-27T06:31:41.520Z,27.90
2023-01-27T06:34:53.093Z,28.10
2023-01-27T06:38:01.308Z,33.30
2023-01-27T06:41:10.289Z,31.70
2023-01-27T06:44:18.340Z,30.70
2023-01-27T06:47:22.424Z,32.90
2023-01-27T06:50:34.923Z,35.80
2023-01-27T06:53:41.579Z,36.00
2023-01-27T06:56:46.849Z,33.10
2023-01-27T07:00:12.276Z,32.20
2023-01-27T07:03:18.265Z,32.90
2023-01-27T07:06:38.210Z,35.10
2023-01-27T07:09:52.630Z,40.80
2023-01-27T07:13:11.571Z,35.30
2023-01-27T07:16:33.316Z,33.80
2023-01-27T07:19:47.319Z,38.00
2023-01-27T07:22:55.657Z,41.90
2023-01-27T07:26:09.848Z,35.30
2023-01-27T07:29:29.162Z,41.60
2023-01-27T07:32:33.604Z,49.00
2023-01-27T07:35:40.459Z,41.90
2023-01-27T07:38:45.938Z,44.10
2023-01-27T07:41:52.798Z,38.80
2023-01-27T07:45:04.008Z,57.20
2023-01-27T07:48:13.740Z,45.80
2023-01-27T07:51:33.755Z,52.80
2023-01-27T07:54:49.500Z,54.10
2023-01-27T07:57:58.350Z,53.30
2023-01-27T08:01:10.488Z,52.70
2023-01-27T08:04:24.225Z,53.50
2023-01-27T08:07:37.361Z,41.70
2023-01-27T08:10:49.603Z,47.90
2023-01-27T08:13:55.671Z,47.70
2023-01-27T08:17:06.444Z,45.40
2023-01-27T08:20:14.140Z,49.50
2023-01-27T08:23:56.610Z,51.10
2023-01-27T08:27:08.020Z,58.40
2023-01-27T08:31:46.463Z,60.30
2023-01-27T08:35:07.229Z,58.10
2023-01-27T08:38:14.971Z,54.40
2023-01-27T08:41:28.516Z,60.30
2023-01-27T08:44:36.828Z,63.70
2023-01-27T08:47:46.032Z,67.20
2023-01-27T08:50:57.811Z,61.20
2023-01-27T08:54:04.895Z,62.50
2023-01-27T08:57:13.598Z,62.30
2023-01-27T09:00:23.307Z,68.80
2023-01-27T09:03:32.347Z,69.30
2023-01-27T09:06:47.783Z,62.80
2023-01-27T09:09:58.274Z,68.10
2023-01-27T09:13:16.039Z,62.60
2023-01-27T09:16:23.461Z,68.20
2023-01-27T09:19:27.382Z,58.90
2023-01-27T09:22:31.766Z,61.50
2023-01-27T09:25:39.932Z,62.60
2023-01-27T09:31:45.585Z,61.90
2023-01-27T09:34:52.368Z,67.70
2023-01-27T09:37:59.901Z,57.40
2023-01-27T09:41:14.091Z,56.50
2023-01-27T14:17:41.268Z,67.90
2023-01-27T14:21:41.418Z,68.80
2023-01-27T14:25:09.950Z,65.80
2023-01-27T14:28:33.558Z,68.60
2023-01-27T14:36:01.289Z,55.00
2023-01-27T14:39:44.208Z,47.30
2023-01-27T14:43:11.519Z,51.10
2023-01-27T14:46:48.665Z,51.30
2023-01-27T14:54:17.285Z,47.40
2023-01-27T14:57:33.909Z,46.80
2023-01-27T15:01:09.929Z,50.60
2023-01-27T15:05:24.195Z,49.50
2023-01-27T15:08:40.989Z,44.70
2023-01-27T15:12:07.161Z,50.50
2023-01-27T15:15:24.922Z,49.70
2023-01-27T15:19:03.073Z,47.60
2023-01-27T15:22:18.250Z,48.60
2023-01-27T15:25:33.142Z,54.60
2023-01-27T15:28:43.109Z,49.30
2023-01-27T15:32:13.382Z,44.10
2023-01-27T15:35:35.710Z,52.40
2023-01-27T15:38:39.341Z,57.70
2023-01-27T15:42:04.772Z,54.20
2023-01-27T15:45:27.208Z,56.60
2023-01-27T15:48:36.089Z,53.30
2023-01-27T15:51:42.423Z,52.30
2023-01-27T15:54:50.796Z,56.40
2023-01-27T15:58:29.396Z,60.20
2023-01-27T16:01:35.659Z,62.50
2023-01-27T16:04:39.849Z,58.70
2023-01-27T16:07:48.818Z,54.70
2023-01-27T16:10:51.330Z,52.60
2023-01-27T16:14:17.529Z,60.20
2023-01-27T16:17:30.686Z,56.30
2023-01-27T16:20:58.931Z,49.90
2023-01-27T16:27:25.905Z,45.00
2023-01-27T16:30:52.800Z,47.10
2023-01-27T16:34:02.632Z,45.40
2023-01-27T16:37:30.832Z,45.70
2023-01-27T16:40:37.914Z,34.40
2023-01-27T16:44:23.797Z,42.70
2023-01-27T16:47:58.964Z,43.90
2023-01-27T16:51:30.172Z,46.70
2023-01-27T16:54:44.917Z,44.00
2023-01-27T16:57:57.937Z,42.10
2023-01-27T17:01:04.386Z,46.00
2023-01-27T17:04:21.276Z,48.30
2023-01-27T17:07:27.844Z,45.20
2023-01-27T17:10:35.655Z,45.90
2023-01-27T17:14:29.981Z,42.20
2023-01-27T17:17:39.581Z,44.40
2023-01-27T17:20:50.943Z,39.80
2023-01-27T17:24:03.785Z,34.30
2023-01-27T17:27:40.423Z,33.40
2023-01-27T17:31:26.200Z,34.70
2023-01-27T17:34:51.837Z,40.80
2023-01-27T17:38:28.045Z,38.50
2023-01-27T17:42:01.666Z,40.60
2023-01-27T17:45:33.578Z,39.20
2023-01-27T17:48:58.803Z,37.80
2023-01-27T22:38:42.997Z,36.00
2023-01-27T22:41:45.876Z,32.60
2023-01-27T22:44:47.771Z,35.30
2023-01-27T22:47:50.114Z,33.70
2023-01-27T22:50:53.576Z,33.00
2023-01-27T22:53:55.837Z,35.20
2023-01-27T22:57:01.190Z,35.70
2023-01-27T23:00:07.685Z,35.50
2023-01-27T23:03:10.127Z,32.40
2023-01-27T23:06:15.299Z,34.10
2023-01-27T23:09:17.350Z,36.70
2023-01-27T23:12:23.193Z,35.60
2023-01-27T23:15:25.257Z,36.70
2023-01-27T23:18:27.589Z,35.60
2023-01-27T23:21:31.553Z,33.10
2023-01-27T23:24:35.143Z,39.20
2023-01-27T23:27:38.651Z,41.10
2023-01-27T23:30:48.149Z,37.80
2023-01-27T23:33:53.955Z,34.40
2023-01-27T23:36:58.937Z,34.60
2023-01-27T23:40:04.283Z,36.90
2023-01-27T23:43:08.016Z,31.80
2023-01-27T23:46:16.222Z,35.70
2023-01-27T23:49:23.181Z,37.70
2023-01-27T23:52:31.275Z,39.50
2023-01-27T23:55:34.272Z,31.30
2023-01-27T23:58:40.642Z,32.20
